Dukedom, TN (38226)

15:09 CST le 26 novembre 2014 (GMT -0600)
Wingo, Ky | Change Station
CLOSE
Current Station
Stations météorologiques personnelles
Location: Wingo, KY
Altitude: 499 ft
Stations météo à proximité

Alt. 499 ft 36.64 °N, 88.73 °W | Updated 1 second ago

Couvert
Couvert
43.7 ° F
Paraît 40 ° F
N
6.4
Vent Variable Vent de SO
Gusts 14.5 mph

Aujourd'hui
Haut(e) -- | Bas -- ° F
--% Risque de précip.
Hier
Haut(e) -- | Bas -- ° F
Precip. -- pouce
6:43 AM 4:40 PM
Lune montante, 22% visible
Pression 29.98 pouce
Visibilité 7.0 Miles terrestres
Nuages Nuages épars 2100 ft
Nuageux 2700 ft
Couvert 3900 ft
Refroidissement éolien 40 ° F
Point de rosée 19 ° F
Humidité 37%
Précipitations 0.00 pouce
Profondeur de la couche neigeuse Non disponible.
UV 0 sur 12
Pollen .20 sur 12
Qualité de l'air Non disponible.
Flu Activity Non disponible.
METAR KUCY 262035Z AUTO 22010KT 7SM SCT021 BKN027 OVC039 05/00 A2998 RMK

More Conditions Fewer Conditions

Pression 29.98 pouce
Visibilité 7.0 Miles terrestres
Nuages Nuages épars 2100 ft
Nuageux 2700 ft
Couvert 3900 ft
Refroidissement éolien 40 ° F
Point de rosée 19 ° F
Humidité 37%
Précipitations 0.00 pouce
Profondeur de la couche neigeuse Non disponible.
UV 0 sur 12
Pollen .20 sur 12
Qualité de l'air Non disponible.
Flu Activity Non disponible.
METAR KUCY 262035Z AUTO 22010KT 7SM SCT021 BKN027 OVC039 05/00 A2998 RMK

More Conditions Fewer Conditions

10-Day Weather Forecast

Almanac

Astronomie

Nov. 26, 2014 Lever Coucher
Temps réel
Crépuscule civil
Crépuscule nautique
Crépuscule astronomique
Lune
Durée de lumière visible
Longueur du jour
Tomorrow will be .
, % of the Moon is Illuminated

Extrêmes aujourd'hui

State Highs State Lows

Community

WunderPhotos

Upload Photos

1,773,870 Photos téléchargées !

WunderBlogs® & News

Nearby

Qualité de l'air

  Qualité de l'air Indice de la qualité de l'air Polluant
Not available.

Épaisseur de neige

Station Depth Altitude

Activité sismique

Ville Distance Mag. Time & Date
Minimum magnitude displayed is 2.5.

Températures des eaux côtières

Lieu Température

Stations météo à proximité